Main page
METAR-TAF:

METAR-TAF

Airports :

Berlin Tegel Airport

Berlin, Germany

latitude: 52-34N, longitude: 013-19E, elevation: 37 m

Current weather observation

The report was made 34 minutes ago, at 19:20 UTC
Wind 6 kt from the North, varying between Northwest and North/Northeast
Temperature 12°C
Humidity 62%
Pressure 1025 hPa
Visibility 10 km or more
no clouds below 1500 m and no cumulonimbus

METAR: EDDT 091920Z 36006KT 320V030 CAVOK 12/05 Q1025 NOSIG

Time: 21:54 (19:54 UTC)

Forecast

The report was made 2 hours and 54 minutes ago, at 17:00 UTC
Forecast valid from 09 at 18 UTC to 10 at 18 UTC
Wind 10 kt from the North
Visibility 10 km or more
no clouds below 1500 m and no cumulonimbus
Becoming
from 09 at 18 UTC to 09 at 21 UTC
Wind 4 kt from the North

TAF: EDDT 091700Z 0918/1018 35010KT CAVOK BECMG 0918/0921 35004KT

Weather observations and forecasts of more than 4000 airports (METAR and TAF reports).

The available stations are represented by yellow and red dots on the map.

Hover mouse over dot to see the name of the station.

Then click to see weather observations and forecasts.

To change the map : click on the green buttons with a black cross to zoom in, on the green button with a dash to zoom out, or on the green arrows for adjacent maps.


METAR-TAF: